Time;durP1;ratioP1;P1;durP2;ratioP2;P2;SDS_P1;SDS_P2;PMS_P1;PMS_P2;Temp;Humidity;BMP_temperature;BMP_pressure;BME280_temperature;BME280_humidity;BME280_pressure;Samples;Min_cycle;Max_cycle;Signal;HPM_P1;HPM_P2
2022/01/17 00:02:07;;;;;;;23.10;12.38;;;;;;;;;;5060466;28;20047;-72
2022/01/17 00:04:33;;;;;;;21.83;11.90;;;;;;;;;;5060232;28;20055;-72
2022/01/17 00:06:58;;;;;;;25.98;13.18;;;;;;;;;;5059420;28;20047;-72
2022/01/17 00:09:24;;;;;;;20.83;11.35;;;;;;;;;;5079687;28;20040;-72
2022/01/17 00:11:50;;;;;;;26.50;14.10;;;;;;;;;;5063821;28;20043;-72
2022/01/17 00:14:21;;;;;;;26.15;13.30;;;;;;;;;;5063996;28;20036;-72
2022/01/17 00:16:53;;;;;;;25.42;13.25;;;;;;;;;;5063444;28;20468;-72
2022/01/17 00:21:44;;;;;;;21.13;11.82;;;;;;;;;;5063810;28;20028;-72
2022/01/17 00:24:10;;;;;;;21.27;11.45;;;;;;;;;;5079102;28;20408;-72
2022/01/17 00:26:36;;;;;;;22.38;12.75;;;;;;;;;;5063599;28;20037;-72
2022/01/17 00:29:01;;;;;;;22.15;12.45;;;;;;;;;;5078442;28;20021;-72
2022/01/17 00:31:27;;;;;;;25.05;12.40;;;;;;;;;;5063688;28;20065;-72
2022/01/17 00:33:52;;;;;;;21.25;12.40;;;;;;;;;;5054121;28;20028;-73
2022/01/17 00:36:18;;;;;;;20.92;12.18;;;;;;;;;;5063749;28;20035;-70
2022/01/17 00:38:43;;;;;;;23.65;11.82;;;;;;;;;;5062162;28;21019;-71
2022/01/17 00:41:08;;;;;;;22.38;12.30;;;;;;;;;;5062774;28;20036;-71
2022/01/17 00:43:35;;;;;;;21.98;11.20;;;;;;;;;;5063210;28;20127;-72
2022/01/17 00:46:00;;;;;;;18.38;11.13;;;;;;;;;;5063282;28;20037;-71
2022/01/17 00:48:26;;;;;;;22.70;12.40;;;;;;;;;;5063425;28;20051;-72
2022/01/17 00:50:51;;;;;;;14.63;8.88;;;;;;;;;;5062774;28;20143;-71
2022/01/17 00:53:17;;;;;;;20.88;9.48;;;;;;;;;;5061852;28;20467;-71
2022/01/17 00:55:42;;;;;;;20.17;9.45;;;;;;;;;;5063120;28;20036;-71
2022/01/17 00:58:08;;;;;;;19.55;10.50;;;;;;;;;;5063392;28;20036;-71
2022/01/17 01:00:34;;;;;;;14.82;8.27;;;;;;;;;;5044958;28;20440;-71
2022/01/17 01:03:00;;;;;;;17.95;9.70;;;;;;;;;;5062295;28;20067;-71
2022/01/17 01:05:25;;;;;;;15.40;9.05;;;;;;;;;;5062623;28;20079;-72
2022/01/17 01:07:51;;;;;;;15.20;9.02;;;;;;;;;;5063082;28;20032;-71
2022/01/17 01:10:16;;;;;;;13.40;8.57;;;;;;;;;;5044939;28;20876;-71
2022/01/17 01:12:49;;;;;;;20.83;8.15;;;;;;;;;;5062324;28;20087;-73
2022/01/17 01:15:19;;;;;;;;;;;;;;;;;;5063496;28;20086;-70
2022/01/17 01:17:56;;;;;;;15.95;8.40;;;;;;;;;;5062736;28;19916;-71
2022/01/17 01:28:18;;;;;;;8.68;5.63;;;;;;;;;;5062553;28;20036;-72
2022/01/17 01:30:48;;;;;;;15.63;10.10;;;;;;;;;;5062323;28;20040;-70
2022/01/17 01:33:22;;;;;;;9.45;5.88;;;;;;;;;;5062048;28;20040;-71
2022/01/17 01:35:48;;;;;;;12.30;6.68;;;;;;;;;;5061489;28;20071;-70
2022/01/17 01:38:14;;;;;;;14.70;8.48;;;;;;;;;;5062200;28;20127;-70
2022/01/17 01:40:39;;;;;;;10.88;6.05;;;;;;;;;;5062349;28;20128;-70
2022/01/17 01:43:05;;;;;;;8.63;6.68;;;;;;;;;;5044185;28;20040;-70
2022/01/17 01:45:30;;;;;;;12.77;6.43;;;;;;;;;;5061056;28;20032;-69
2022/01/17 01:47:56;;;;;;;13.57;8.18;;;;;;;;;;5062032;28;20559;-71
2022/01/17 01:50:22;;;;;;;14.20;8.90;;;;;;;;;;5062141;28;20123;-71
2022/01/17 01:52:48;;;;;;;11.93;6.45;;;;;;;;;;5062253;28;20505;-71
2022/01/17 01:55:16;;;;;;;8.30;6.10;;;;;;;;;;5061912;28;20042;-71
2022/01/17 01:57:43;;;;;;;10.90;6.88;;;;;;;;;;5061061;28;20094;-71
2022/01/17 02:00:09;;;;;;;14.07;7.93;;;;;;;;;;5061819;28;20036;-70
2022/01/17 02:02:36;;;;;;;11.35;6.88;;;;;;;;;;5060905;28;20723;-71
2022/01/17 02:05:03;;;;;;;9.65;5.70;;;;;;;;;;5062250;28;20504;-69
2022/01/17 02:07:28;;;;;;;12.02;7.30;;;;;;;;;;5058570;28;20485;-70
2022/01/17 02:09:54;;;;;;;10.52;5.95;;;;;;;;;;5060863;28;20066;-71
2022/01/17 02:12:21;;;;;;;10.43;6.35;;;;;;;;;;5061867;28;20028;-71
2022/01/17 02:14:54;;;;;;;13.57;8.73;;;;;;;;;;5061792;28;20040;-70
2022/01/17 02:17:24;;;;;;;8.55;5.40;;;;;;;;;;5060038;28;20036;-69
2022/01/17 02:20:07;;;;;;;8.88;5.32;;;;;;;;;;5061380;28;20081;-71
2022/01/17 02:22:34;;;;;;;7.95;4.85;;;;;;;;;;5061313;28;20089;-71
2022/01/17 02:25:00;;;;;;;9.07;5.15;;;;;;;;;;5060153;28;20072;-70
2022/01/17 02:27:26;;;;;;;8.10;5.05;;;;;;;;;;5061431;28;20144;-71
2022/01/17 02:29:51;;;;;;;11.10;6.30;;;;;;;;;;5060451;28;20058;-70
2022/01/17 02:32:17;;;;;;;9.35;5.53;;;;;;;;;;5060968;28;20608;-71
2022/01/17 02:34:42;;;;;;;7.78;4.32;;;;;;;;;;5061331;28;20031;-70
2022/01/17 02:37:11;;;;;;;6.80;4.35;;;;;;;;;;5061086;28;20941;-70
2022/01/17 02:39:38;;;;;;;11.00;6.10;;;;;;;;;;5061255;28;20083;-70
2022/01/17 02:42:05;;;;;;;6.28;4.88;;;;;;;;;;5042556;28;20059;-69
2022/01/17 02:44:31;;;;;;;7.05;4.93;;;;;;;;;;5059617;28;20045;-70
2022/01/17 02:46:58;;;;;;;7.95;5.22;;;;;;;;;;5059530;28;20106;-72
2022/01/17 02:49:24;;;;;;;9.75;5.32;;;;;;;;;;5061449;28;20041;-70
2022/01/17 02:51:51;;;;;;;8.05;5.10;;;;;;;;;;5060251;28;20090;-71
2022/01/17 02:54:17;;;;;;;6.90;3.90;;;;;;;;;;5061087;28;20417;-71
2022/01/17 02:56:43;;;;;;;10.40;4.68;;;;;;;;;;5061078;28;20477;-71
2022/01/17 02:59:08;;;;;;;6.45;4.03;;;;;;;;;;5061255;28;20040;-71
2022/01/17 03:01:34;;;;;;;4.95;3.90;;;;;;;;;;5059403;28;20119;-71
2022/01/17 03:03:59;;;;;;;6.50;4.88;;;;;;;;;;5060622;28;20051;-71
2022/01/17 03:06:27;;;;;;;6.55;4.40;;;;;;;;;;5061118;28;20063;-70
2022/01/17 03:08:53;;;;;;;5.93;4.65;;;;;;;;;;5060708;28;20455;-74
2022/01/17 03:11:22;;;;;;;5.60;4.15;;;;;;;;;;5061009;28;20034;-72
2022/01/17 03:13:48;;;;;;;9.00;5.13;;;;;;;;;;5059804;28;20123;-71
2022/01/17 03:16:16;;;;;;;5.10;3.35;;;;;;;;;;5060624;28;20481;-71
2022/01/17 03:18:50;;;;;;;5.18;3.88;;;;;;;;;;5060725;28;20782;-71
2022/01/17 03:21:17;;;;;;;6.00;3.88;;;;;;;;;;5042791;28;20044;-71
2022/01/17 03:23:45;;;;;;;6.97;3.80;;;;;;;;;;5042545;28;20075;-71
2022/01/17 03:26:10;;;;;;;6.82;4.30;;;;;;;;;;5058270;28;20051;-71
2022/01/17 03:28:37;;;;;;;6.30;4.13;;;;;;;;;;5061217;28;20036;-72
2022/01/17 03:31:04;;;;;;;7.22;4.38;;;;;;;;;;5060761;28;20050;-69
2022/01/17 03:33:30;;;;;;;5.78;3.75;;;;;;;;;;5060353;28;20131;-71
2022/01/17 03:35:56;;;;;;;4.75;3.25;;;;;;;;;;5059909;28;20489;-70
2022/01/17 03:38:25;;;;;;;4.68;3.28;;;;;;;;;;5060565;28;20066;-71
2022/01/17 03:40:51;;;;;;;5.10;3.17;;;;;;;;;;5061032;28;20040;-70
2022/01/17 03:43:21;;;;;;;3.25;2.95;;;;;;;;;;5063582;28;20090;-71
2022/01/17 03:45:49;;;;;;;6.00;3.70;;;;;;;;;;5064126;28;20063;-70
2022/01/17 03:48:15;;;;;;;3.78;2.90;;;;;;;;;;5063560;28;20115;-70
2022/01/17 03:50:41;;;;;;;6.35;3.13;;;;;;;;;;5064469;28;20073;-71
2022/01/17 03:53:06;;;;;;;4.97;4.13;;;;;;;;;;5063015;28;20033;-72
2022/01/17 03:55:34;;;;;;;5.75;4.10;;;;;;;;;;5064442;28;20481;-71
2022/01/17 03:58:01;;;;;;;5.22;3.42;;;;;;;;;;5063851;28;20036;-71
2022/01/17 04:00:30;;;;;;;4.95;3.65;;;;;;;;;;5063794;28;20031;-71
2022/01/17 04:02:55;;;;;;;4.80;3.05;;;;;;;;;;5064468;28;20037;-71
2022/01/17 04:05:21;;;;;;;6.03;3.70;;;;;;;;;;5063837;28;20090;-71
2022/01/17 04:07:47;;;;;;;7.47;4.05;;;;;;;;;;5062453;28;20032;-70
2022/01/17 04:10:13;;;;;;;7.85;3.80;;;;;;;;;;5061891;28;20040;-71
2022/01/17 04:12:40;;;;;;;6.38;3.90;;;;;;;;;;5063900;28;20520;-71
2022/01/17 04:15:07;;;;;;;4.13;2.88;;;;;;;;;;5063551;28;20032;-71
2022/01/17 04:17:33;;;;;;;5.53;3.38;;;;;;;;;;5063833;28;20039;-70
2022/01/17 04:20:06;;;;;;;7.40;4.13;;;;;;;;;;5078458;28;20044;-70
2022/01/17 04:22:41;;;;;;;4.13;3.63;;;;;;;;;;5050944;28;20036;-71
2022/01/17 04:25:08;;;;;;;8.48;4.65;;;;;;;;;;5063601;28;20145;-71
2022/01/17 04:27:34;;;;;;;8.88;4.18;;;;;;;;;;5063819;28;20492;-71
2022/01/17 04:30:01;;;;;;;4.88;3.17;;;;;;;;;;5045860;28;20024;-70
2022/01/17 04:32:26;;;;;;;6.00;4.50;;;;;;;;;;5062512;28;20047;-71
2022/01/17 04:34:52;;;;;;;5.88;4.75;;;;;;;;;;5062183;28;20040;-71
2022/01/17 04:37:18;;;;;;;6.28;4.15;;;;;;;;;;5063490;28;20100;-70
2022/01/17 04:39:43;;;;;;;3.92;3.17;;;;;;;;;;5062515;28;20139;-69
2022/01/17 04:42:13;;;;;;;5.13;3.38;;;;;;;;;;5062406;28;20040;-71
2022/01/17 04:47:23;;;;;;;7.95;3.55;;;;;;;;;;5063091;28;20124;-69
2022/01/17 04:49:49;;;;;;;3.78;2.85;;;;;;;;;;5063429;28;20111;-70
2022/01/17 04:52:15;;;;;;;6.68;4.05;;;;;;;;;;5063319;28;20072;-73
2022/01/17 04:54:42;;;;;;;4.32;2.92;;;;;;;;;;5062787;28;20032;-71
2022/01/17 04:57:09;;;;;;;4.68;3.75;;;;;;;;;;5063000;28;20032;-71
2022/01/17 04:59:35;;;;;;;4.47;3.17;;;;;;;;;;5063278;28;20046;-70
2022/01/17 05:02:01;;;;;;;8.45;4.65;;;;;;;;;;5045844;28;20040;-71
2022/01/17 05:04:27;;;;;;;7.55;4.53;;;;;;;;;;5061867;28;20050;-72
2022/01/17 05:06:52;;;;;;;4.38;3.40;;;;;;;;;;5062875;28;20040;-71
2022/01/17 05:09:18;;;;;;;4.90;3.85;;;;;;;;;;5062046;28;20055;-73
2022/01/17 05:11:43;;;;;;;6.00;4.25;;;;;;;;;;5063022;28;20033;-69
2022/01/17 05:14:10;;;;;;;5.03;3.45;;;;;;;;;;5063135;28;20485;-71
2022/01/17 05:16:37;;;;;;;6.68;3.13;;;;;;;;;;5060763;28;20044;-70
2022/01/17 05:21:47;;;;;;;7.97;3.92;;;;;;;;;;5062628;28;20169;-70
2022/01/17 05:24:12;;;;;;;4.10;3.40;;;;;;;;;;5062477;28;20119;-71
2022/01/17 05:26:37;;;;;;;9.43;5.07;;;;;;;;;;5061181;28;20953;-73
2022/01/17 05:29:03;;;;;;;2.60;2.35;;;;;;;;;;5062349;28;20044;-70
2022/01/17 05:31:28;;;;;;;6.53;3.33;;;;;;;;;;5077934;28;20020;-72
2022/01/17 05:33:54;;;;;;;3.92;3.33;;;;;;;;;;5062183;28;20040;-73
2022/01/17 05:36:19;;;;;;;4.97;3.72;;;;;;;;;;5061219;28;20036;-73
2022/01/17 05:38:45;;;;;;;4.57;3.47;;;;;;;;;;5062182;28;20089;-70
2022/01/17 05:41:10;;;;;;;4.95;3.85;;;;;;;;;;5061782;28;20040;-70
2022/01/17 05:43:36;;;;;;;5.55;4.53;;;;;;;;;;5060922;28;20044;-74
2022/01/17 05:46:01;;;;;;;4.20;3.58;;;;;;;;;;5061508;28;20037;-70
2022/01/17 05:48:27;;;;;;;4.40;3.53;;;;;;;;;;5060152;28;20443;-73
2022/01/17 05:50:53;;;;;;;5.35;3.80;;;;;;;;;;5060152;28;20154;-69
2022/01/17 05:53:18;;;;;;;3.42;2.80;;;;;;;;;;5060115;28;20482;-72
2022/01/17 05:55:44;;;;;;;4.75;3.08;;;;;;;;;;5061594;28;20036;-72
2022/01/17 05:58:11;;;;;;;4.57;3.40;;;;;;;;;;5061477;28;20051;-70
2022/01/17 06:00:36;;;;;;;3.28;2.58;;;;;;;;;;5058578;28;20028;-71
2022/01/17 06:03:02;;;;;;;6.30;3.92;;;;;;;;;;5068887;28;20073;-71
2022/01/17 06:05:28;;;;;;;3.75;2.72;;;;;;;;;;5067820;28;20036;-70
2022/01/17 06:07:53;;;;;;;4.38;2.90;;;;;;;;;;5066228;28;20037;-70
2022/01/17 06:10:19;;;;;;;3.38;2.90;;;;;;;;;;5063498;28;20098;-72
2022/01/17 06:12:44;;;;;;;6.72;3.90;;;;;;;;;;5060488;28;20044;-69
2022/01/17 06:15:10;;;;;;;5.57;3.50;;;;;;;;;;5062898;28;20128;-70
2022/01/17 06:17:36;;;;;;;5.07;3.58;;;;;;;;;;5065617;28;20078;-69
2022/01/17 06:20:03;;;;;;;3.40;3.08;;;;;;;;;;5057971;28;20040;-69
2022/01/17 06:22:29;;;;;;;5.35;3.50;;;;;;;;;;5061832;28;20106;-69
2022/01/17 06:24:54;;;;;;;3.40;2.55;;;;;;;;;;5060664;28;20643;-69
2022/01/17 06:27:20;;;;;;;4.13;3.00;;;;;;;;;;5061636;28;20028;-70
2022/01/17 06:29:46;;;;;;;3.67;2.53;;;;;;;;;;5060838;28;20524;-70
2022/01/17 06:32:11;;;;;;;6.03;2.95;;;;;;;;;;5060870;28;20123;-69
2022/01/17 06:34:36;;;;;;;2.95;2.70;;;;;;;;;;5062678;28;20044;-69
2022/01/17 06:37:02;;;;;;;3.97;3.03;;;;;;;;;;5063674;28;20038;-70
2022/01/17 06:39:28;;;;;;;5.15;2.95;;;;;;;;;;5063430;28;20094;-70
2022/01/17 06:41:53;;;;;;;2.45;2.25;;;;;;;;;;5061996;28;20063;-69
2022/01/17 06:44:18;;;;;;;8.35;4.20;;;;;;;;;;5061004;28;20762;-69
2022/01/17 06:46:44;;;;;;;4.95;4.05;;;;;;;;;;5062909;28;20047;-69
2022/01/17 06:49:09;;;;;;;4.25;3.67;;;;;;;;;;5063976;28;20115;-69
2022/01/17 06:51:36;;;;;;;5.25;3.60;;;;;;;;;;5062700;28;20546;-70
2022/01/17 06:54:02;;;;;;;3.75;3.03;;;;;;;;;;5062448;28;20060;-69
2022/01/17 06:56:27;;;;;;;4.25;3.53;;;;;;;;;;5062509;28;20060;-69
2022/01/17 06:58:53;;;;;;;5.38;3.72;;;;;;;;;;5061555;28;20133;-69
2022/01/17 07:01:20;;;;;;;3.83;3.13;;;;;;;;;;5057867;28;20067;-70
2022/01/17 07:03:47;;;;;;;5.20;2.25;;;;;;;;;;5058857;28;20531;-70
2022/01/17 07:06:12;;;;;;;4.82;3.33;;;;;;;;;;5057114;28;20024;-70
2022/01/17 07:08:38;;;;;;;3.55;2.80;;;;;;;;;;5059263;28;20090;-70
2022/01/17 07:11:04;;;;;;;4.22;2.58;;;;;;;;;;5074755;28;20044;-70
2022/01/17 07:13:30;;;;;;;3.88;3.03;;;;;;;;;;5059675;28;20044;-70
2022/01/17 07:15:56;;;;;;;4.70;3.67;;;;;;;;;;5059963;28;20028;-70
2022/01/17 07:18:21;;;;;;;4.57;3.35;;;;;;;;;;5064574;28;20115;-69
2022/01/17 07:20:47;;;;;;;6.93;3.40;;;;;;;;;;5065641;28;20415;-70
2022/01/17 07:23:13;;;;;;;4.82;3.28;;;;;;;;;;5065590;28;20066;-71
2022/01/17 07:25:38;;;;;;;4.25;3.22;;;;;;;;;;5064945;28;20044;-70
2022/01/17 07:28:08;;;;;;;2.95;2.60;;;;;;;;;;5064803;28;20123;-70
2022/01/17 07:30:35;;;;;;;6.18;3.65;;;;;;;;;;5064816;28;20039;-69
2022/01/17 07:33:02;;;;;;;3.30;2.50;;;;;;;;;;5080463;28;20139;-71
2022/01/17 07:35:27;;;;;;;2.95;2.60;;;;;;;;;;5064765;28;20083;-71
2022/01/17 07:37:53;;;;;;;4.57;3.55;;;;;;;;;;5064703;28;20041;-71
2022/01/17 07:40:18;;;;;;;5.40;3.13;;;;;;;;;;5064859;28;20036;-70
2022/01/17 07:42:44;;;;;;;4.97;3.05;;;;;;;;;;5066322;28;20066;-72
2022/01/17 07:45:13;;;;;;;6.80;4.47;;;;;;;;;;5063681;28;20035;-72
2022/01/17 07:50:20;;;;;;;6.53;4.45;;;;;;;;;;5080273;28;20048;-70
2022/01/17 07:52:47;;;;;;;6.72;4.03;;;;;;;;;;5064059;28;20060;-71
2022/01/17 07:55:14;;;;;;;4.85;4.00;;;;;;;;;;5069192;28;20036;-71
2022/01/17 07:57:41;;;;;;;6.07;3.80;;;;;;;;;;5066823;28;20579;-71
2022/01/17 08:00:09;;;;;;;5.72;3.78;;;;;;;;;;5065600;28;20040;-70
2022/01/17 08:02:44;;;;;;;4.47;2.78;;;;;;;;;;5064713;28;20501;-71
2022/01/17 08:05:14;;;;;;;2.65;2.20;;;;;;;;;;5066269;28;20107;-70
2022/01/17 08:07:40;;;;;;;3.67;3.30;;;;;;;;;;5068933;28;20049;-71
2022/01/17 08:10:12;;;;;;;4.18;3.47;;;;;;;;;;5070996;28;20095;-71
2022/01/17 08:12:41;;;;;;;3.92;2.95;;;;;;;;;;5067043;28;20055;-72
2022/01/17 08:15:07;;;;;;;7.38;3.15;;;;;;;;;;5055840;28;20028;-71
2022/01/17 08:17:33;;;;;;;4.88;3.17;;;;;;;;;;5065006;28;20036;-71
2022/01/17 08:19:58;;;;;;;4.20;3.35;;;;;;;;;;5065730;28;20044;-71
2022/01/17 08:22:24;;;;;;;2.75;2.40;;;;;;;;;;5064479;28;20048;-73
2022/01/17 08:24:49;;;;;;;5.88;3.72;;;;;;;;;;5066340;28;20045;-72
2022/01/17 08:27:15;;;;;;;4.80;3.53;;;;;;;;;;5061955;28;20032;-72
2022/01/17 08:29:40;;;;;;;6.03;3.90;;;;;;;;;;5063384;28;20469;-73
2022/01/17 08:32:07;;;;;;;5.03;3.35;;;;;;;;;;5064027;28;20044;-74
2022/01/17 08:34:33;;;;;;;3.85;2.40;;;;;;;;;;5061412;28;20033;-73
2022/01/17 08:36:58;;;;;;;3.70;2.60;;;;;;;;;;5065176;28;20036;-71
2022/01/17 08:39:24;;;;;;;2.90;2.33;;;;;;;;;;5066260;28;20042;-71
2022/01/17 08:41:51;;;;;;;3.45;2.90;;;;;;;;;;5065054;28;20040;-72
2022/01/17 08:44:19;;;;;;;4.20;2.50;;;;;;;;;;5064141;28;20115;-72
2022/01/17 08:46:44;;;;;;;3.20;2.88;;;;;;;;;;5062304;28;20062;-73
2022/01/17 08:49:10;;;;;;;2.70;2.50;;;;;;;;;;5065664;28;20044;-72
2022/01/17 08:51:36;;;;;;;3.15;2.65;;;;;;;;;;5066195;28;20503;-72
2022/01/17 08:54:02;;;;;;;4.10;3.25;;;;;;;;;;5064271;28;20036;-71
2022/01/17 08:56:30;;;;;;;7.18;2.80;;;;;;;;;;5064055;28;20082;-71
2022/01/17 08:58:56;;;;;;;3.42;2.67;;;;;;;;;;5056931;28;20503;-73
2022/01/17 09:01:23;;;;;;;3.03;2.47;;;;;;;;;;5065233;28;20490;-72
2022/01/17 09:03:49;;;;;;;6.32;3.45;;;;;;;;;;5064468;28;20037;-69
2022/01/17 09:06:14;;;;;;;4.68;2.67;;;;;;;;;;5063548;28;20036;-73
2022/01/17 09:08:41;;;;;;;3.47;2.90;;;;;;;;;;5064671;28;20032;-73
2022/01/17 09:11:07;;;;;;;3.65;2.75;;;;;;;;;;5063699;28;20132;-72
2022/01/17 09:13:32;;;;;;;2.67;2.40;;;;;;;;;;5063745;28;20119;-71
2022/01/17 09:15:58;;;;;;;3.92;2.88;;;;;;;;;;5062581;28;20085;-70
2022/01/17 09:18:24;;;;;;;4.70;2.97;;;;;;;;;;5063270;28;20055;-72
2022/01/17 09:20:50;;;;;;;5.18;2.97;;;;;;;;;;5064873;28;20032;-72
2022/01/17 09:23:16;;;;;;;5.25;2.75;;;;;;;;;;5064006;28;20454;-71
2022/01/17 09:25:42;;;;;;;5.50;3.03;;;;;;;;;;5062181;28;20036;-71
2022/01/17 09:28:08;;;;;;;3.95;3.30;;;;;;;;;;5060152;28;20224;-70
2022/01/17 09:30:33;;;;;;;6.18;2.38;;;;;;;;;;5062069;28;20028;-71
2022/01/17 09:32:59;;;;;;;3.35;2.58;;;;;;;;;;5060532;28;20106;-70
2022/01/17 09:35:24;;;;;;;2.95;2.65;;;;;;;;;;5061597;28;20081;-71
2022/01/17 09:37:51;;;;;;;2.70;2.50;;;;;;;;;;5062368;28;20036;-72
2022/01/17 09:40:18;;;;;;;3.03;2.15;;;;;;;;;;5060679;28;20493;-72
2022/01/17 09:42:44;;;;;;;3.20;2.40;;;;;;;;;;5062133;28;20024;-70
2022/01/17 09:45:13;;;;;;;3.28;2.92;;;;;;;;;;5060805;28;20847;-70
2022/01/17 09:47:39;;;;;;;3.88;2.78;;;;;;;;;;5060774;28;20641;-71
2022/01/17 09:50:12;;;;;;;2.78;2.40;;;;;;;;;;5061420;28;20097;-70
2022/01/17 09:52:46;;;;;;;5.97;3.65;;;;;;;;;;5062047;28;20093;-71
2022/01/17 09:55:15;;;;;;;4.95;3.45;;;;;;;;;;5061695;28;20048;-70
2022/01/17 09:57:50;;;;;;;5.65;3.53;;;;;;;;;;5061857;28;20408;-70
2022/01/17 10:00:17;;;;;;;2.78;2.53;;;;;;;;;;5061154;28;20045;-72
2022/01/17 10:02:43;;;;;;;4.32;3.05;;;;;;;;;;5060712;28;20447;-71
2022/01/17 10:05:10;;;;;;;3.72;3.42;;;;;;;;;;5061019;28;20033;-70
2022/01/17 10:08:04;;;;;;;3.70;2.85;;;;;;;;;;5059299;28;20048;-71
2022/01/17 10:10:42;;;;;;;3.25;2.80;;;;;;;;;;5058534;28;20040;-71
2022/01/17 10:13:11;;;;;;;5.00;3.10;;;;;;;;;;5057254;28;20044;-70
2022/01/17 10:15:49;;;;;;;4.03;3.38;;;;;;;;;;5057650;28;20036;-70
2022/01/17 10:18:26;;;;;;;5.63;3.42;;;;;;;;;;5060760;28;20036;-71
2022/01/17 10:20:57;;;;;;;8.35;3.75;;;;;;;;;;5060694;28;20037;-71
2022/01/17 10:26:20;;;;;;;3.25;2.38;;;;;;;;;;5060831;28;20145;-70
2022/01/17 10:37:09;;;;;;;;;;;;;;;;;;5053105;28;20232;-69
2022/01/17 10:39:37;;;;;;;4.20;2.97;;;;;;;;;;5059809;28;19923;-71
2022/01/17 10:42:31;;;;;;;4.55;2.83;;;;;;;;;;5060969;28;20551;-70
2022/01/17 10:45:10;;;;;;;3.47;2.78;;;;;;;;;;5059295;28;20052;-71
2022/01/17 10:47:39;;;;;;;3.38;3.08;;;;;;;;;;5060738;28;20032;-70
2022/01/17 10:50:15;;;;;;;3.97;3.65;;;;;;;;;;5059888;28;20063;-70
2022/01/17 10:52:43;;;;;;;3.55;2.35;;;;;;;;;;5060693;28;20627;-70
2022/01/17 10:55:08;;;;;;;3.08;1.85;;;;;;;;;;5060262;28;20094;-70
2022/01/17 10:57:40;;;;;;;3.33;2.63;;;;;;;;;;5060914;28;20083;-70
2022/01/17 11:00:12;;;;;;;6.30;3.60;;;;;;;;;;5060883;28;20086;-71
2022/01/17 11:02:40;;;;;;;5.10;4.07;;;;;;;;;;5060775;28;20043;-70
2022/01/17 11:05:07;;;;;;;3.92;3.03;;;;;;;;;;5060436;28;20032;-70
2022/01/17 11:07:44;;;;;;;6.10;4.10;;;;;;;;;;5060551;28;20496;-70
2022/01/17 11:10:24;;;;;;;6.18;3.92;;;;;;;;;;5059255;28;20488;-70
2022/01/17 11:12:54;;;;;;;3.60;2.70;;;;;;;;;;5059680;28;20531;-71
2022/01/17 11:15:21;;;;;;;4.13;3.45;;;;;;;;;;5075820;28;20113;-71
2022/01/17 11:17:51;;;;;;;2.42;2.22;;;;;;;;;;5060957;28;20028;-71
2022/01/17 11:20:20;;;;;;;3.05;2.80;;;;;;;;;;5060805;28;20036;-70
2022/01/17 11:22:48;;;;;;;2.53;2.20;;;;;;;;;;5050834;28;20037;-70
2022/01/17 11:25:19;;;;;;;7.30;4.97;;;;;;;;;;5058922;28;20028;-72
2022/01/17 11:27:46;;;;;;;6.68;4.55;;;;;;;;;;5061435;28;20033;-71
2022/01/17 11:30:12;;;;;;;6.65;3.10;;;;;;;;;;5061720;28;20051;-72
2022/01/17 11:32:38;;;;;;;2.80;2.60;;;;;;;;;;5060775;28;20401;-72
2022/01/17 11:35:05;;;;;;;5.10;3.63;;;;;;;;;;5060608;28;20055;-72
2022/01/17 11:37:33;;;;;;;3.13;2.83;;;;;;;;;;5060381;28;20032;-74
2022/01/17 11:39:59;;;;;;;8.68;2.90;;;;;;;;;;5060429;28;20053;-74
2022/01/17 11:42:34;;;;;;;4.82;2.40;;;;;;;;;;5060148;28;20126;-75
2022/01/17 11:45:01;;;;;;;3.85;2.95;;;;;;;;;;5041389;28;20748;-72
2022/01/17 11:47:50;;;;;;;2.35;1.90;;;;;;;;;;5042614;28;20040;-73
2022/01/17 11:50:28;;;;;;;5.05;2.30;;;;;;;;;;5060013;28;20041;-72
2022/01/17 11:53:00;;;;;;;3.22;2.50;;;;;;;;;;5060357;28;20043;-70
2022/01/17 11:55:52;;;;;;;1.52;1.42;;;;;;;;;;5059687;28;20469;-70
2022/01/17 11:58:26;;;;;;;2.05;1.95;;;;;;;;;;5059622;28;20044;-73
2022/01/17 12:00:58;;;;;;;2.63;2.10;;;;;;;;;;5060017;28;20917;-73
2022/01/17 12:03:26;;;;;;;4.07;2.47;;;;;;;;;;5061860;28;20464;-72
2022/01/17 12:05:52;;;;;;;2.42;2.28;;;;;;;;;;5061975;28;20043;-73
2022/01/17 12:08:21;;;;;;;4.28;2.90;;;;;;;;;;5064054;28;20047;-74
2022/01/17 12:11:01;;;;;;;3.03;2.75;;;;;;;;;;5046105;28;20029;-72
2022/01/17 12:13:36;;;;;;;3.80;3.47;;;;;;;;;;5063044;28;20160;-71
2022/01/17 12:16:12;;;;;;;2.60;2.33;;;;;;;;;;5063402;28;20067;-72
2022/01/17 12:18:50;;;;;;;3.25;2.80;;;;;;;;;;5063917;28;20548;-71
2022/01/17 12:21:40;;;;;;;4.63;3.30;;;;;;;;;;5062263;28;20051;-72
2022/01/17 12:24:15;;;;;;;2.80;2.38;;;;;;;;;;5062845;28;20070;-72
2022/01/17 12:26:42;;;;;;;3.88;3.50;;;;;;;;;;5062624;28;20036;-71
2022/01/17 12:29:08;;;;;;;2.83;2.17;;;;;;;;;;5062715;28;20070;-72
2022/01/17 12:31:45;;;;;;;2.88;2.65;;;;;;;;;;5062675;28;20066;-70
2022/01/17 12:34:14;;;;;;;2.88;2.45;;;;;;;;;;5063213;28;20066;-72
2022/01/17 12:36:41;;;;;;;4.32;3.80;;;;;;;;;;5061754;28;20071;-72
2022/01/17 12:39:15;;;;;;;5.47;2.88;;;;;;;;;;5060981;28;20033;-73
2022/01/17 12:41:42;;;;;;;2.50;2.30;;;;;;;;;;5063310;28;20056;-72
2022/01/17 12:44:15;;;;;;;3.42;2.40;;;;;;;;;;5062080;28;20166;-73
2022/01/17 12:46:43;;;;;;;3.40;3.10;;;;;;;;;;5061684;28;20036;-73
2022/01/17 12:49:09;;;;;;;4.90;2.92;;;;;;;;;;5062311;28;20041;-72
2022/01/17 12:51:38;;;;;;;3.03;2.53;;;;;;;;;;5061141;28;20040;-72
2022/01/17 12:54:10;;;;;;;5.45;4.03;;;;;;;;;;5062608;28;20039;-72
2022/01/17 12:56:42;;;;;;;3.83;2.40;;;;;;;;;;5061296;28;20028;-73
2022/01/17 12:59:09;;;;;;;6.65;3.83;;;;;;;;;;5061322;28;20090;-71
2022/01/17 13:01:35;;;;;;;3.55;2.92;;;;;;;;;;5060136;28;20127;-71
2022/01/17 13:04:04;;;;;;;4.40;3.35;;;;;;;;;;5063366;28;20051;-71
2022/01/17 13:06:30;;;;;;;2.13;1.92;;;;;;;;;;5061547;28;20115;-71
2022/01/17 13:08:59;;;;;;;2.55;2.35;;;;;;;;;;5062946;28;20465;-71
2022/01/17 13:11:26;;;;;;;4.13;3.13;;;;;;;;;;5060481;28;21710;-73
2022/01/17 13:14:01;;;;;;;2.55;2.33;;;;;;;;;;5062224;28;20613;-72
2022/01/17 13:16:31;;;;;;;2.55;2.13;;;;;;;;;;5061956;28;20085;-73
2022/01/17 13:18:57;;;;;;;2.92;2.47;;;;;;;;;;5060658;28;20111;-70
2022/01/17 13:21:23;;;;;;;3.00;2.25;;;;;;;;;;5059947;28;20028;-70
2022/01/17 13:24:12;;;;;;;3.13;2.72;;;;;;;;;;5058761;28;20035;-69
2022/01/17 13:26:56;;;;;;;3.45;2.83;;;;;;;;;;5076176;28;20029;-68
2022/01/17 13:29:23;;;;;;;2.63;2.40;;;;;;;;;;5059592;28;20048;-69
2022/01/17 13:31:48;;;;;;;3.97;3.28;;;;;;;;;;5060356;28;20680;-69
2022/01/17 13:34:21;;;;;;;3.00;2.55;;;;;;;;;;5060030;28;20119;-68
2022/01/17 13:36:49;;;;;;;5.30;2.97;;;;;;;;;;5059115;28;20048;-69
2022/01/17 13:39:21;;;;;;;4.38;2.60;;;;;;;;;;5061849;28;20064;-70
2022/01/17 13:41:50;;;;;;;2.75;2.30;;;;;;;;;;5062074;28;20102;-70
2022/01/17 13:44:25;;;;;;;2.55;2.20;;;;;;;;;;5060729;28;20052;-71
2022/01/17 13:46:56;;;;;;;4.75;2.85;;;;;;;;;;5061884;28;20071;-71
2022/01/17 13:49:21;;;;;;;4.67;3.37;;;;;;;;;;5062127;28;20040;-70
2022/01/17 13:51:47;;;;;;;2.25;2.05;;;;;;;;;;5061775;28;20278;-69
2022/01/17 13:54:41;;;;;;;5.25;2.30;;;;;;;;;;5062111;28;20055;-71
2022/01/17 13:57:13;;;;;;;2.45;2.15;;;;;;;;;;5060733;28;20123;-70
2022/01/17 13:59:39;;;;;;;2.50;1.30;;;;;;;;;;5062145;28;20837;-71
2022/01/17 14:02:15;;;;;;;2.55;1.55;;;;;;;;;;5063549;28;20147;-69
2022/01/17 14:04:42;;;;;;;1.83;1.13;;;;;;;;;;5062889;28;20068;-69
2022/01/17 14:07:24;;;;;;;3.97;2.53;;;;;;;;;;5064145;28;20036;-70
2022/01/17 14:09:49;;;;;;;1.05;0.98;;;;;;;;;;5061858;28;20062;-70
2022/01/17 14:12:15;;;;;;;1.65;1.45;;;;;;;;;;5060648;28;20473;-70
2022/01/17 14:14:49;;;;;;;1.23;1.17;;;;;;;;;;5061652;28;20162;-70
2022/01/17 14:17:25;;;;;;;1.52;1.38;;;;;;;;;;5060696;28;20033;-70
2022/01/17 14:19:52;;;;;;;1.65;1.50;;;;;;;;;;5061120;28;20029;-71
2022/01/17 14:22:28;;;;;;;6.07;2.10;;;;;;;;;;5061947;28;20029;-72
2022/01/17 14:25:16;;;;;;;2.28;1.88;;;;;;;;;;5063563;28;20044;-70
2022/01/17 14:27:55;;;;;;;1.98;1.80;;;;;;;;;;5062274;28;20029;-72
2022/01/17 14:30:29;;;;;;;1.52;1.42;;;;;;;;;;5059867;28;20037;-73
2022/01/17 14:33:13;;;;;;;1.45;1.33;;;;;;;;;;5061278;28;20466;-71
2022/01/17 14:36:01;;;;;;;2.28;1.20;;;;;;;;;;5060309;28;20048;-71
2022/01/17 14:38:26;;;;;;;0.80;0.80;;;;;;;;;;5060970;28;20036;-71
2022/01/17 14:40:52;;;;;;;2.58;2.25;;;;;;;;;;5058960;28;20098;-72
2022/01/17 14:43:18;;;;;;;2.05;1.60;;;;;;;;;;5060436;28;20956;-73
2022/01/17 14:45:50;;;;;;;2.08;1.63;;;;;;;;;;5059041;28;20032;-73
2022/01/17 14:48:17;;;;;;;2.35;1.45;;;;;;;;;;5063497;28;21232;-71
2022/01/17 14:50:43;;;;;;;1.40;1.30;;;;;;;;;;5059598;28;20070;-71
2022/01/17 14:53:16;;;;;;;2.10;1.92;;;;;;;;;;5076016;28;20036;-71
2022/01/17 15:01:00;;;;;;;1.88;1.75;;;;;;;;;;5060897;28;20047;-71
2022/01/17 15:03:30;;;;;;;1.98;1.50;;;;;;;;;;5059532;28;20051;-70
2022/01/17 15:05:56;;;;;;;1.40;1.30;;;;;;;;;;5060981;28;20409;-70
2022/01/17 15:08:21;;;;;;;2.28;1.42;;;;;;;;;;5060584;28;20037;-70
2022/01/17 15:10:48;;;;;;;1.65;1.55;;;;;;;;;;5060780;28;20093;-70
2022/01/17 15:13:14;;;;;;;0.85;0.85;;;;;;;;;;5060086;28;20043;-69
2022/01/17 15:15:42;;;;;;;2.00;1.42;;;;;;;;;;5060206;28;20040;-69
2022/01/17 15:18:11;;;;;;;2.47;1.25;;;;;;;;;;5059448;28;20847;-68
2022/01/17 15:20:38;;;;;;;1.85;1.20;;;;;;;;;;5060614;28;20093;-71
2022/01/17 15:23:04;;;;;;;1.52;1.42;;;;;;;;;;5042451;28;20536;-70